Sunday, April 22, 2018, 1:59 PM EDT

KESN, Easton / Newman Field

Location: Easton, MD, United States Lat: 38.8
Local Time: 1:59 PM EDT (17:59 GMT) Lon: -76.067
Time Zone: US/Eastern Elev: 72 ft

Show me the last for .
Show Decoded

2018-04-22 12:45 METAR KESN 221645Z 13005KT 10SM FEW150 18/02 A3043 =
2018-04-22 11:45 METAR KESN 221545Z 14007KT 10SM SCT150 17/02 A3044 =
2018-04-22 10:45 METAR KESN 221445Z 08003KT 10SM SCT150 16/04 A3046 =
2018-04-22 09:45 METAR KESN 221345Z 03003KT 10SM SCT150 14/05 A3046 =
2018-04-22 08:45 METAR KESN 221245Z 10005KT 10SM SCT150 12/05 A3046 =
2018-04-22 07:45 METAR KESN 221145Z 00000KT 10SM SCT120 09/05 A3046 =
2018-04-22 06:45 METAR KESN 221045Z 00000KT 10SM SCT120 07/05 A3045 =
2018-04-22 05:45 METAR KESN 220945Z 00000KT 10SM SCT120 08/05 A3043 =
2018-04-22 05:36 METAR KESN 220936Z AUTO 00000KT 10SM CLR 08/06 A3043 RMK AO2 T00760056 =
2018-04-22 05:27 METAR KESN 220929Z AUTO 00000KT 10SM CLR 08/06 A3043 RMK AO2 T00760055 =
2018-04-22 05:06 METAR KESN 220909Z AUTO 00000KT 10SM CLR 08/05 A3042 RMK AO2 T00800054 =
2018-04-22 04:49 METAR KESN 220849Z AUTO 00000KT 10SM CLR 09/06 A3042 RMK AO2 T00850056 =
2018-04-22 04:28 METAR KESN 220829Z AUTO 00000KT 10SM CLR 09/06 A3042 RMK AO2 T00870055 =
2018-04-22 04:06 METAR KESN 220809Z AUTO 00000KT 10SM CLR 09/05 A3042 RMK AO2 T00870052 =
2018-04-22 03:49 METAR KESN 220749Z AUTO 22003KT 10SM CLR 09/04 A3042 RMK AO2 T00860042 =
2018-04-22 03:27 METAR KESN 220729Z AUTO 22003KT 10SM CLR 09/04 A3042 RMK AO2 T00850035 =
2018-04-22 03:06 METAR KESN 220709Z AUTO 00000KT 10SM CLR 08/03 A3042 RMK AO2 T00800032 =
2018-04-22 02:49 METAR KESN 220649Z AUTO 00000KT 10SM CLR 09/03 A3041 RMK AO2 T00850032 =
2018-04-22 02:28 METAR KESN 220629Z AUTO 00000KT 10SM CLR 09/04 A3042 RMK AO2 T00850036 =
2018-04-22 02:06 METAR KESN 220609Z AUTO 00000KT 10SM CLR 09/03 A3042 RMK AO2 T00860033 =
2018-04-22 01:49 METAR KESN 220549Z AUTO 00000KT 10SM CLR 09/03 A3043 RMK AO2 T00880033 =
2018-04-22 01:26 METAR KESN 220529Z AUTO 00000KT 10SM CLR 09/03 A3043 RMK AO2 T00850032 =
2018-04-22 01:06 METAR KESN 220509Z AUTO 00000KT 10SM CLR 09/03 A3042 RMK AO2 T00860030 =
2018-04-22 00:49 METAR KESN 220449Z AUTO 00000KT 10SM CLR 09/03 A3042 RMK AO2 T00910029 =
2018-04-22 00:28 METAR KESN 220429Z AUTO 00000KT 10SM CLR 09/03 A3042 RMK AO2 T00920026 =
2018-04-22 00:08 METAR KESN 220409Z AUTO 00000KT 10SM CLR 09/02 A3042 RMK AO2 T00920024 =
2018-04-21 23:49 METAR KESN 220349Z AUTO 00000KT 10SM CLR 10/02 A3042 RMK AO2 T00960023 =
2018-04-21 23:26 METAR KESN 220329Z AUTO 00000KT 10SM CLR 10/02 A3042 RMK AO2 T01000018 =
2018-04-21 23:07 METAR KESN 220309Z AUTO 00000KT 10SM CLR 10/02 A3042 RMK AO2 T00980022 =
2018-04-21 22:49 METAR KESN 220249Z AUTO 22004KT 10SM CLR 10/02 A3042 RMK AO2 T01010015 =
2018-04-21 22:27 METAR KESN 220229Z AUTO 00000KT 10SM CLR 10/01 A3042 RMK AO2 T00970007 =
2018-04-21 21:47 METAR KESN 220147Z 00000KT 10SM SCT100 10/00 A3042 =
2018-04-21 20:50 METAR KESN 220050Z 00000KT 10SM SCT100 10/00 A3041 =
2018-04-21 19:54 METAR KESN 212354Z 00000KT 10SM SCT100 12/M01 A3040 =
2018-04-21 18:50 METAR KESN 212250Z 00000KT 10SM SCT100 14/M02 A3039 =
2018-04-21 17:50 METAR KESN 212150Z 33006KT 10SM SCT100 15/M03 A3039 =
2018-04-21 16:50 METAR KESN 212050Z 27006KT 10SM SCT100 15/M03 A3039 =
2018-04-21 15:50 METAR KESN 211950Z 35007KT 10SM SCT150 15/M02 A3041 =
2018-04-21 14:45 METAR KESN 211845Z 34005KT 10SM SCT150 15/M03 A3042 =

Support USWX by starting your Amazon purchase here.